Aplicació Alertes

Dades de l'estació automàtica el Masroig

?
?
Resum diari 20:30 TU
Dades diàries de l'estació meteorològica
Temperatura mitjana 6.9 °C
Temperatura màxima 17.8 °C 13:47 TU
Temperatura mínima -0.9 °C 6:50 TU
Humitat relativa mitjana 70%
Precipitació acumulada 0.0 mm
Ratxa màxima del vent (2 m) 12.2 km/h - 273º 11:44 TU

El tram horari està expressat en Temps Universal (TU). Cal sumar una hora en horari d'hivern i dues en horari d'estiu per passar a l'hora oficial.

el Masroig

Metadades estació meteorol´gica
Municipi El Masroig
Comarca Priorat
Altitud 141 m
Data alta 20.06.2000
Estat actual Operativa
Dades de període
Període
TU
TM
°C
TX
°C
TN
°C
HRM
%
PPT
mm
VVM (2 m)
km/h
DVM (2 m)
graus
VVX (2 m)
km/h
00:00 - 00:30 1.6 1.9 1.4 85 0.0 3.6 116 6.1
00:30 - 01:00 1.4 1.6 1.3 86 0.0 3.2 113 5.8
01:00 - 01:30 1.2 1.6 0.9 87 0.0 3.2 112 5.0
01:30 - 02:00 0.9 1.2 0.7 88 0.0 3.6 115 5.4
02:00 - 02:30 0.9 1.1 0.6 88 0.0 2.9 106 4.7
02:30 - 03:00 0.6 0.7 0.4 90 0.0 3.2 108 5.0
03:00 - 03:30 0.3 0.4 0.1 91 0.0 2.5 114 4.3
03:30 - 04:00 0.3 0.4 0.0 91 0.0 2.5 114 5.4
04:00 - 04:30 0.0 0.2 -0.2 93 0.0 2.9 109 5.0
04:30 - 05:00 -0.2 -0.1 -0.3 94 0.0 3.6 115 6.1
05:00 - 05:30 -0.3 -0.1 -0.4 94 0.0 3.2 110 5.4
05:30 - 06:00 -0.5 -0.2 -0.7 94 0.0 3.6 122 6.5
06:00 - 06:30 -0.3 -0.1 -0.6 95 0.0 2.2 108 3.6
06:30 - 07:00 -0.5 -0.1 -0.9 94 0.0 2.2 114 4.3
07:00 - 07:30 -0.4 0.4 -0.6 95 0.0 2.5 112 4.3
07:30 - 08:00 1.6 2.6 0.5 89 0.0 1.4 119 2.9
08:00 - 08:30 4.2 6.0 2.8 77 0.0 0.7 180 2.9
08:30 - 09:00 5.3 6.7 4.1 74 0.0 1.1 259 2.9
09:00 - 09:30 7.3 7.8 6.7 68 0.0 1.8 278 4.7
09:30 - 10:00 9.0 9.9 7.2 63 0.0 1.8 258 6.1
10:00 - 10:30 10.5 11.2 9.5 57 0.0 2.5 261 7.6
10:30 - 11:00 11.6 12.0 11.1 53 0.0 4.0 263 8.6
11:00 - 11:30 12.1 12.9 11.7 53 0.0 5.0 274 10.4
11:30 - 12:00 13.5 14.1 13.0 50 0.0 5.4 260 12.2
12:00 - 12:30 14.4 14.8 13.6 47 0.0 5.4 257 11.5
12:30 - 13:00 15.6 16.4 14.9 42 0.0 4.3 251 11.9
13:00 - 13:30 16.5 16.9 16.0 38 0.0 5.8 260 11.5
13:30 - 14:00 17.2 17.8 16.6 36 0.0 4.7 257 9.4
14:00 - 14:30 17.3 17.5 17.0 36 0.0 5.0 258 10.8
14:30 - 15:00 17.4 17.7 17.1 36 0.0 4.3 257 9.4
15:00 - 15:30 17.4 17.5 17.2 36 0.0 4.0 264 7.9
15:30 - 16:00 16.9 17.2 16.4 37 0.0 3.2 282 6.1
16:00 - 16:30 14.8 16.4 13.1 42 0.0 0.7 130 3.2
16:30 - 17:00 11.3 13.0 9.9 55 0.0 3.2 119 7.2
17:00 - 17:30 9.3 10.2 8.6 62 0.0 4.0 122 7.9
17:30 - 18:00 8.4 8.8 7.4 65 0.0 4.3 119 9.4
18:00 - 18:30 7.1 7.5 6.5 69 0.0 4.7 118 7.9
18:30 - 19:00 6.5 7.2 6.1 72 0.0 4.0 116 7.6
19:00 - 19:30 5.8 7.0 5.5 75 0.0 3.6 123 5.8
19:30 - 20:00 5.3 5.6 5.0 77 0.0 2.9 119 5.8
20:00 - 20:30 4.5 5.0 4.2 80 0.0 4.3 119 7.2
20:30 - 21:00 4.3 4.6 4.0 80 0.0 3.2 119 5.4

Les dades en taronja només han passat un control de qualitat automàtic. Resta pendent la seva validació definitiva.